sensor_id;sensor_type;location;lat;lon;timestamp;pressure;altitude;pressure_sealevel;temperature;humidity
34454;BME280;60061;52.080;5.312;2022-08-06T00:00:12;102525.0;;;11.61;76.98
34454;BME280;60061;52.080;5.312;2022-08-06T00:01:59;102526.0;;;11.59;76.56
34454;BME280;60061;52.080;5.312;2022-08-06T00:03:46;102527.0;;;11.57;76.83
34454;BME280;60061;52.080;5.312;2022-08-06T00:05:32;102530.0;;;11.49;77.19
34454;BME280;60061;52.080;5.312;2022-08-06T00:07:20;102526.0;;;11.4;78.12
34454;BME280;60061;52.080;5.312;2022-08-06T00:09:06;102530.0;;;11.36;77.24
34454;BME280;60061;52.080;5.312;2022-08-06T00:12:39;102531.0;;;11.38;77.61
34454;BME280;60061;52.080;5.312;2022-08-06T00:14:26;102536.99999999999;;;11.37;77.69
34454;BME280;60061;52.080;5.312;2022-08-06T00:16:12;102534.99999999999;;;11.38;77.13
34454;BME280;60061;52.080;5.312;2022-08-06T00:17:58;102532.0;;;11.48;75.98
34454;BME280;60061;52.080;5.312;2022-08-06T00:19:44;102533.99999999999;;;11.51;76.31
34454;BME280;60061;52.080;5.312;2022-08-06T00:21:32;102540.00000000001;;;11.51;75.56
34454;BME280;60061;52.080;5.312;2022-08-06T00:25:08;102542.0;;;11.49;76.11
34454;BME280;60061;52.080;5.312;2022-08-06T00:26:55;102533.99999999999;;;11.42;77.52
34454;BME280;60061;52.080;5.312;2022-08-06T00:28:42;102533.0;;;11.37;77.05
34454;BME280;60061;52.080;5.312;2022-08-06T00:30:28;102539.00000000001;;;11.42;76.61
34454;BME280;60061;52.080;5.312;2022-08-06T00:32:14;102539.00000000001;;;11.42;76.44
34454;BME280;60061;52.080;5.312;2022-08-06T00:35:51;102546.0;;;11.37;76.77
34454;BME280;60061;52.080;5.312;2022-08-06T00:37:37;102546.0;;;11.32;77.47
34454;BME280;60061;52.080;5.312;2022-08-06T00:39:23;102549.0;;;11.32;76.94
34454;BME280;60061;52.080;5.312;2022-08-06T00:41:10;102543.0;;;11.34;76.66
34454;BME280;60061;52.080;5.312;2022-08-06T00:42:58;102546.0;;;11.32;77.08
34454;BME280;60061;52.080;5.312;2022-08-06T00:44:46;102551.0;;;11.1;78.38
34454;BME280;60061;52.080;5.312;2022-08-06T00:48:21;102548.0;;;11.04;78.09
34454;BME280;60061;52.080;5.312;2022-08-06T00:50:08;102551.0;;;11.01;77.98
34454;BME280;60061;52.080;5.312;2022-08-06T00:51:55;102552.0;;;10.95;78.44
34454;BME280;60061;52.080;5.312;2022-08-06T00:53:41;102558.0;;;10.86;78.62
34454;BME280;60061;52.080;5.312;2022-08-06T00:55:28;102561.99999999999;;;10.84;78.49
34454;BME280;60061;52.080;5.312;2022-08-06T00:57:15;102558.99999999999;;;10.81;78.16
34454;BME280;60061;52.080;5.312;2022-08-06T01:00:50;102564.00000000001;;;10.75;78.56
34454;BME280;60061;52.080;5.312;2022-08-06T01:02:37;102567.0;;;10.72;78.75
34454;BME280;60061;52.080;5.312;2022-08-06T01:04:23;102575.0;;;10.69;78.64
34454;BME280;60061;52.080;5.312;2022-08-06T01:06:09;102569.0;;;10.7;78.41
34454;BME280;60061;52.080;5.312;2022-08-06T01:07:56;102572.0;;;10.69;78.61
34454;BME280;60061;52.080;5.312;2022-08-06T01:09:42;102571.0;;;10.62;79.37
34454;BME280;60061;52.080;5.312;2022-08-06T01:13:15;102578.0;;;10.61;78.5
34454;BME280;60061;52.080;5.312;2022-08-06T01:15:03;102582.0;;;10.62;78.58
34454;BME280;60061;52.080;5.312;2022-08-06T01:16:57;102582.0;;;10.57;78.91
34454;BME280;60061;52.080;5.312;2022-08-06T01:18:54;102586.99999999999;;;10.55;78.92
34454;BME280;60061;52.080;5.312;2022-08-06T01:20:49;102584.99999999999;;;10.53;78.89
34454;BME280;60061;52.080;5.312;2022-08-06T01:24:23;102584.99999999999;;;10.42;79.08
34454;BME280;60061;52.080;5.312;2022-08-06T01:27:26;102580.0;;;10.49;78.19
34454;BME280;60061;52.080;5.312;2022-08-06T01:29:46;102592.0;;;10.59;77.16
34454;BME280;60061;52.080;5.312;2022-08-06T01:31:44;102592.0;;;10.68;77.05
34454;BME280;60061;52.080;5.312;2022-08-06T01:33:35;102592.0;;;10.63;77.97
34454;BME280;60061;52.080;5.312;2022-08-06T01:35:29;102592.0;;;10.59;78.55
34454;BME280;60061;52.080;5.312;2022-08-06T01:37:21;102593.0;;;10.61;77.08
34454;BME280;60061;52.080;5.312;2022-08-06T01:39:16;102591.00000000001;;;10.55;77.94
34454;BME280;60061;52.080;5.312;2022-08-06T01:41:07;102597.0;;;10.49;78.58
34454;BME280;60061;52.080;5.312;2022-08-06T01:44:47;102595.0;;;10.46;78.86
34454;BME280;60061;52.080;5.312;2022-08-06T01:46:36;102592.0;;;10.44;77.95
34454;BME280;60061;52.080;5.312;2022-08-06T01:48:27;102592.0;;;10.44;78.97
34454;BME280;60061;52.080;5.312;2022-08-06T01:50:17;102594.0;;;10.33;79.33
34454;BME280;60061;52.080;5.312;2022-08-06T01:52:07;102600.0;;;10.33;78.86
34454;BME280;60061;52.080;5.312;2022-08-06T01:53:57;102600.0;;;10.37;78.0
34454;BME280;60061;52.080;5.312;2022-08-06T01:55:49;102601.0;;;10.38;78.24
34454;BME280;60061;52.080;5.312;2022-08-06T01:59:32;102601.0;;;10.39;77.92
34454;BME280;60061;52.080;5.312;2022-08-06T02:01:22;102602.0;;;10.4;78.12
34454;BME280;60061;52.080;5.312;2022-08-06T02:03:15;102603.0;;;10.4;77.33
34454;BME280;60061;52.080;5.312;2022-08-06T02:05:06;102603.0;;;10.31;78.47
34454;BME280;60061;52.080;5.312;2022-08-06T02:06:55;102603.0;;;10.23;78.47
34454;BME280;60061;52.080;5.312;2022-08-06T02:08:44;102603.0;;;10.21;78.66
34454;BME280;60061;52.080;5.312;2022-08-06T02:10:34;102604.0;;;10.22;78.37
34454;BME280;60061;52.080;5.312;2022-08-06T02:14:12;102604.0;;;10.17;79.09
34454;BME280;60061;52.080;5.312;2022-08-06T02:16:03;102605.0;;;10.06;79.45
34454;BME280;60061;52.080;5.312;2022-08-06T02:17:54;102604.0;;;10.1;78.58
34454;BME280;60061;52.080;5.312;2022-08-06T02:19:50;102607.0;;;10.08;79.05
34454;BME280;60061;52.080;5.312;2022-08-06T02:21:38;102600.0;;;10.13;78.52
34454;BME280;60061;52.080;5.312;2022-08-06T02:23:27;102602.0;;;10.13;79.22
34454;BME280;60061;52.080;5.312;2022-08-06T02:25:16;102604.0;;;10.06;79.16
34454;BME280;60061;52.080;5.312;2022-08-06T02:27:04;102606.0;;;9.99;79.61
34454;BME280;60061;52.080;5.312;2022-08-06T02:30:45;102608.0;;;9.99;79.19
34454;BME280;60061;52.080;5.312;2022-08-06T02:32:33;102608.0;;;10.07;78.84
34454;BME280;60061;52.080;5.312;2022-08-06T02:34:21;102606.0;;;10.07;77.8
34454;BME280;60061;52.080;5.312;2022-08-06T02:36:13;102606.0;;;10.05;79.28
34454;BME280;60061;52.080;5.312;2022-08-06T02:38:07;102603.0;;;9.98;79.27
34454;BME280;60061;52.080;5.312;2022-08-06T02:40:02;102608.0;;;9.89;79.33
34454;BME280;60061;52.080;5.312;2022-08-06T02:42:01;102605.0;;;9.82;80.19
34454;BME280;60061;52.080;5.312;2022-08-06T02:43:54;102602.0;;;9.83;79.61
34454;BME280;60061;52.080;5.312;2022-08-06T02:47:38;102599.0;;;9.83;79.17
34454;BME280;60061;52.080;5.312;2022-08-06T02:49:28;102601.0;;;9.77;80.17
34454;BME280;60061;52.080;5.312;2022-08-06T02:51:28;102602.0;;;9.63;81.39
34454;BME280;60061;52.080;5.312;2022-08-06T02:53:32;102607.0;;;9.64;80.27
34454;BME280;60061;52.080;5.312;2022-08-06T02:55:25;102601.0;;;9.63;80.05
34454;BME280;60061;52.080;5.312;2022-08-06T02:57:17;102605.0;;;9.64;79.95
34454;BME280;60061;52.080;5.312;2022-08-06T02:59:26;102601.0;;;9.66;79.3
34454;BME280;60061;52.080;5.312;2022-08-06T03:01:18;102605.0;;;9.74;78.59
34454;BME280;60061;52.080;5.312;2022-08-06T03:03:14;102599.0;;;9.73;78.98
34454;BME280;60061;52.080;5.312;2022-08-06T03:05:05;102603.0;;;9.75;78.8
34454;BME280;60061;52.080;5.312;2022-08-06T03:06:53;102605.0;;;9.77;79.36
34454;BME280;60061;52.080;5.312;2022-08-06T03:10:29;102604.0;;;9.71;79.87
34454;BME280;60061;52.080;5.312;2022-08-06T03:12:20;102607.0;;;9.66;79.81
34454;BME280;60061;52.080;5.312;2022-08-06T03:14:08;102615.00000000001;;;9.55;79.95
34454;BME280;60061;52.080;5.312;2022-08-06T03:15:58;102613.00000000001;;;9.49;80.47
34454;BME280;60061;52.080;5.312;2022-08-06T03:17:47;102614.00000000001;;;9.52;79.5
34454;BME280;60061;52.080;5.312;2022-08-06T03:19:37;102617.0;;;9.5;79.37
34454;BME280;60061;52.080;5.312;2022-08-06T03:23:14;102617.0;;;9.49;79.44
34454;BME280;60061;52.080;5.312;2022-08-06T03:25:03;102615.00000000001;;;9.48;79.09
34454;BME280;60061;52.080;5.312;2022-08-06T03:26:54;102623.0;;;9.43;79.98
34454;BME280;60061;52.080;5.312;2022-08-06T03:28:42;102620.0;;;9.38;80.5
34454;BME280;60061;52.080;5.312;2022-08-06T03:30:30;102617.0;;;9.27;80.22
34454;BME280;60061;52.080;5.312;2022-08-06T03:32:18;102619.0;;;9.31;80.09
34454;BME280;60061;52.080;5.312;2022-08-06T03:34:06;102620.0;;;9.31;81.25
34454;BME280;60061;52.080;5.312;2022-08-06T03:37:45;102620.0;;;9.25;80.92
34454;BME280;60061;52.080;5.312;2022-08-06T03:39:33;102624.0;;;9.34;79.8
34454;BME280;60061;52.080;5.312;2022-08-06T03:41:20;102629.0;;;9.39;79.5
34454;BME280;60061;52.080;5.312;2022-08-06T03:43:08;102629.0;;;9.39;79.55
34454;BME280;60061;52.080;5.312;2022-08-06T03:44:54;102632.0;;;9.36;79.48
34454;BME280;60061;52.080;5.312;2022-08-06T03:46:44;102633.99999999999;;;9.34;79.58
34454;BME280;60061;52.080;5.312;2022-08-06T03:50:28;102633.99999999999;;;9.25;79.72
34454;BME280;60061;52.080;5.312;2022-08-06T03:52:22;102631.0;;;9.19;79.75
34454;BME280;60061;52.080;5.312;2022-08-06T03:54:10;102632.0;;;9.15;80.37
34454;BME280;60061;52.080;5.312;2022-08-06T03:56:00;102633.0;;;9.14;80.16
34454;BME280;60061;52.080;5.312;2022-08-06T03:57:52;102642.0;;;9.1;80.5
34454;BME280;60061;52.080;5.312;2022-08-06T03:59:43;102642.0;;;9.13;79.63
34454;BME280;60061;52.080;5.312;2022-08-06T04:01:32;102638.00000000001;;;9.13;79.58
34454;BME280;60061;52.080;5.312;2022-08-06T04:03:21;102639.00000000001;;;9.18;79.13
34454;BME280;60061;52.080;5.312;2022-08-06T04:06:58;102636.99999999999;;;9.27;80.02
34454;BME280;60061;52.080;5.312;2022-08-06T04:08:47;102636.99999999999;;;9.31;79.39
34454;BME280;60061;52.080;5.312;2022-08-06T04:10:37;102642.0;;;9.28;79.02
34454;BME280;60061;52.080;5.312;2022-08-06T04:12:25;102643.0;;;9.25;79.97
34454;BME280;60061;52.080;5.312;2022-08-06T04:14:13;102645.0;;;9.23;80.44
34454;BME280;60061;52.080;5.312;2022-08-06T04:16:00;102652.0;;;9.13;80.52
34454;BME280;60061;52.080;5.312;2022-08-06T04:19:37;102647.0;;;9.11;80.89
34454;BME280;60061;52.080;5.312;2022-08-06T04:21:26;102651.0;;;9.11;80.02
34454;BME280;60061;52.080;5.312;2022-08-06T04:23:14;102655.0;;;9.1;81.69
34454;BME280;60061;52.080;5.312;2022-08-06T04:25:01;102652.0;;;9.13;80.31
34454;BME280;60061;52.080;5.312;2022-08-06T04:26:51;102653.0;;;9.05;80.83
34454;BME280;60061;52.080;5.312;2022-08-06T04:30:31;102656.0;;;9.0;82.03
34454;BME280;60061;52.080;5.312;2022-08-06T04:34:08;102656.0;;;8.98;82.33
34454;BME280;60061;52.080;5.312;2022-08-06T04:35:58;102649.0;;;8.99;81.72
34454;BME280;60061;52.080;5.312;2022-08-06T04:37:45;102652.0;;;8.9;83.07
34454;BME280;60061;52.080;5.312;2022-08-06T04:39:33;102651.0;;;8.91;83.28
34454;BME280;60061;52.080;5.312;2022-08-06T04:41:20;102655.0;;;8.88;83.32
34454;BME280;60061;52.080;5.312;2022-08-06T04:43:08;102653.0;;;8.86;82.47
34454;BME280;60061;52.080;5.312;2022-08-06T04:46:48;102658.99999999999;;;8.96;82.03
34454;BME280;60061;52.080;5.312;2022-08-06T04:48:36;102659.99999999999;;;8.98;81.83
34454;BME280;60061;52.080;5.312;2022-08-06T04:50:23;102664.00000000001;;;9.05;82.43
34454;BME280;60061;52.080;5.312;2022-08-06T04:52:20;102665.00000000001;;;9.06;82.7
34454;BME280;60061;52.080;5.312;2022-08-06T04:54:07;102671.0;;;9.06;82.73
34454;BME280;60061;52.080;5.312;2022-08-06T04:55:53;102670.0;;;9.15;82.2
34454;BME280;60061;52.080;5.312;2022-08-06T04:59:25;102675.0;;;9.31;81.19
34454;BME280;60061;52.080;5.312;2022-08-06T05:01:11;102671.0;;;9.5;80.75
34454;BME280;60061;52.080;5.312;2022-08-06T05:02:59;102679.0;;;9.73;80.05
34454;BME280;60061;52.080;5.312;2022-08-06T05:04:46;102683.0;;;9.9;79.92
34454;BME280;60061;52.080;5.312;2022-08-06T05:06:40;102682.0;;;10.03;79.13
34454;BME280;60061;52.080;5.312;2022-08-06T05:08:36;102684.99999999999;;;10.21;78.34
34454;BME280;60061;52.080;5.312;2022-08-06T05:10:30;102689.00000000001;;;10.33;78.59
34454;BME280;60061;52.080;5.312;2022-08-06T05:12:22;102689.00000000001;;;10.48;77.5
34454;BME280;60061;52.080;5.312;2022-08-06T05:16:14;102684.99999999999;;;10.65;77.7
34454;BME280;60061;52.080;5.312;2022-08-06T05:18:06;102692.0;;;10.82;75.58
34454;BME280;60061;52.080;5.312;2022-08-06T05:20:02;102691.00000000001;;;10.99;76.08
34454;BME280;60061;52.080;5.312;2022-08-06T05:22:01;102694.0;;;11.14;76.22
34454;BME280;60061;52.080;5.312;2022-08-06T05:23:50;102696.0;;;11.26;75.97
34454;BME280;60061;52.080;5.312;2022-08-06T05:25:41;102701.0;;;11.35;73.94
34454;BME280;60061;52.080;5.312;2022-08-06T05:27:28;102699.0;;;11.4;74.08
34454;BME280;60061;52.080;5.312;2022-08-06T05:29:18;102702.0;;;11.5;74.88
34454;BME280;60061;52.080;5.312;2022-08-06T05:32:52;102701.0;;;11.6;74.86
34454;BME280;60061;52.080;5.312;2022-08-06T05:34:38;102702.0;;;11.62;74.47
34454;BME280;60061;52.080;5.312;2022-08-06T05:36:24;102701.0;;;11.56;74.91
34454;BME280;60061;52.080;5.312;2022-08-06T05:38:10;102708.99999999999;;;11.5;74.97
34454;BME280;60061;52.080;5.312;2022-08-06T05:39:57;102708.99999999999;;;11.42;75.84
34454;BME280;60061;52.080;5.312;2022-08-06T05:41:43;102711.99999999999;;;11.43;75.58
34454;BME280;60061;52.080;5.312;2022-08-06T05:45:19;102714.00000000001;;;11.45;75.94
34454;BME280;60061;52.080;5.312;2022-08-06T05:47:08;102717.0;;;11.48;76.49
34454;BME280;60061;52.080;5.312;2022-08-06T05:49:08;102722.0;;;11.51;77.09
34454;BME280;60061;52.080;5.312;2022-08-06T05:51:05;102723.0;;;11.47;77.59
34454;BME280;60061;52.080;5.312;2022-08-06T05:53:08;102721.0;;;11.51;77.33
34454;BME280;60061;52.080;5.312;2022-08-06T05:55:04;102722.0;;;11.62;77.13
34454;BME280;60061;52.080;5.312;2022-08-06T05:56:58;102719.0;;;11.75;78.3
34454;BME280;60061;52.080;5.312;2022-08-06T05:58:54;102719.0;;;11.88;77.95
34454;BME280;60061;52.080;5.312;2022-08-06T06:00:47;102722.0;;;12.02;77.94
34454;BME280;60061;52.080;5.312;2022-08-06T06:02:39;102722.0;;;12.15;77.94
34454;BME280;60061;52.080;5.312;2022-08-06T06:06:16;102726.0;;;12.29;78.08
34454;BME280;60061;52.080;5.312;2022-08-06T06:08:05;102722.0;;;12.4;77.86
34454;BME280;60061;52.080;5.312;2022-08-06T06:09:53;102727.0;;;12.55;77.8
34454;BME280;60061;52.080;5.312;2022-08-06T06:11:41;102730.0;;;12.66;77.5
34454;BME280;60061;52.080;5.312;2022-08-06T06:13:28;102733.99999999999;;;12.76;77.41
34454;BME280;60061;52.080;5.312;2022-08-06T06:15:17;102736.99999999999;;;12.86;77.64
34454;BME280;60061;52.080;5.312;2022-08-06T06:20:12;102733.99999999999;;;13.08;77.91
34454;BME280;60061;52.080;5.312;2022-08-06T06:22:09;102738.00000000001;;;13.21;77.78
34454;BME280;60061;52.080;5.312;2022-08-06T06:24:11;102739.00000000001;;;13.29;77.97
34454;BME280;60061;52.080;5.312;2022-08-06T06:26:12;102746.0;;;13.35;78.09
34454;BME280;60061;52.080;5.312;2022-08-06T06:28:12;102751.0;;;13.52;77.44
34454;BME280;60061;52.080;5.312;2022-08-06T06:30:10;102747.0;;;13.63;77.41
34454;BME280;60061;52.080;5.312;2022-08-06T06:32:05;102751.0;;;13.76;77.47
34454;BME280;60061;52.080;5.312;2022-08-06T06:34:00;102754.0;;;14.12;76.8
34454;BME280;60061;52.080;5.312;2022-08-06T06:36:08;102748.0;;;14.13;77.64
34454;BME280;60061;52.080;5.312;2022-08-06T06:40:28;102745.0;;;14.54;77.19
34454;BME280;60061;52.080;5.312;2022-08-06T06:42:29;102746.0;;;14.68;77.83
34454;BME280;60061;52.080;5.312;2022-08-06T06:46:23;102742.0;;;14.71;78.08
34454;BME280;60061;52.080;5.312;2022-08-06T06:48:18;102746.0;;;14.97;78.22
34454;BME280;60061;52.080;5.312;2022-08-06T06:50:15;102752.0;;;15.3;78.13
34454;BME280;60061;52.080;5.312;2022-08-06T06:52:08;102750.0;;;15.41;78.19
34454;BME280;60061;52.080;5.312;2022-08-06T06:54:16;102750.0;;;15.55;78.19
34454;BME280;60061;52.080;5.312;2022-08-06T06:56:24;102742.0;;;15.65;77.56
34454;BME280;60061;52.080;5.312;2022-08-06T06:58:17;102744.0;;;15.9;76.95
34454;BME280;60061;52.080;5.312;2022-08-06T07:00:15;102744.0;;;15.97;76.86
34454;BME280;60061;52.080;5.312;2022-08-06T07:02:03;102745.0;;;16.25;76.05
34454;BME280;60061;52.080;5.312;2022-08-06T07:03:51;102746.0;;;16.43;75.37
34454;BME280;60061;52.080;5.312;2022-08-06T07:05:41;102752.0;;;16.57;74.83
34454;BME280;60061;52.080;5.312;2022-08-06T07:07:31;102749.0;;;16.82;74.03
34454;BME280;60061;52.080;5.312;2022-08-06T07:11:11;102750.0;;;16.89;74.14
34454;BME280;60061;52.080;5.312;2022-08-06T07:13:03;102748.0;;;17.16;73.02
34454;BME280;60061;52.080;5.312;2022-08-06T07:14:53;102751.0;;;17.29;70.74
34454;BME280;60061;52.080;5.312;2022-08-06T07:16:42;102755.0;;;17.52;71.8
34454;BME280;60061;52.080;5.312;2022-08-06T07:18:31;102752.0;;;17.64;71.59
34454;BME280;60061;52.080;5.312;2022-08-06T07:20:30;102757.0;;;17.81;70.16
34454;BME280;60061;52.080;5.312;2022-08-06T07:22:18;102758.0;;;17.97;69.56
34454;BME280;60061;52.080;5.312;2022-08-06T07:24:08;102757.0;;;17.96;68.03
34454;BME280;60061;52.080;5.312;2022-08-06T07:27:46;102764.00000000001;;;18.27;66.99
34454;BME280;60061;52.080;5.312;2022-08-06T07:29:39;102761.99999999999;;;18.41;66.87
34454;BME280;60061;52.080;5.312;2022-08-06T07:31:29;102767.0;;;18.3;65.24
34454;BME280;60061;52.080;5.312;2022-08-06T07:33:16;102766.00000000001;;;18.39;66.3
34454;BME280;60061;52.080;5.312;2022-08-06T07:35:07;102770.0;;;18.36;65.56
34454;BME280;60061;52.080;5.312;2022-08-06T07:36:55;102773.0;;;18.46;65.19
34454;BME280;60061;52.080;5.312;2022-08-06T07:40:42;102767.0;;;18.47;65.36
34454;BME280;60061;52.080;5.312;2022-08-06T07:42:29;102768.0;;;18.68;64.81
34454;BME280;60061;52.080;5.312;2022-08-06T07:44:15;102768.0;;;18.72;61.34
34454;BME280;60061;52.080;5.312;2022-08-06T07:46:06;102766.00000000001;;;18.75;59.51
34454;BME280;60061;52.080;5.312;2022-08-06T07:47:55;102766.00000000001;;;18.71;59.21
34454;BME280;60061;52.080;5.312;2022-08-06T07:49:44;102767.0;;;18.79;60.95
34454;BME280;60061;52.080;5.312;2022-08-06T07:51:36;102769.0;;;18.95;60.43
34454;BME280;60061;52.080;5.312;2022-08-06T07:53:32;102771.0;;;18.93;59.94
34454;BME280;60061;52.080;5.312;2022-08-06T07:57:10;102768.0;;;19.05;59.79
34454;BME280;60061;52.080;5.312;2022-08-06T07:58:58;102768.0;;;19.34;57.18
34454;BME280;60061;52.080;5.312;2022-08-06T08:00:48;102767.0;;;19.53;57.73
34454;BME280;60061;52.080;5.312;2022-08-06T08:02:36;102768.0;;;19.77;57.87
34454;BME280;60061;52.080;5.312;2022-08-06T08:07:27;102771.0;;;19.75;58.88
34454;BME280;60061;52.080;5.312;2022-08-06T08:09:15;102781.0;;;19.77;55.55
34454;BME280;60061;52.080;5.312;2022-08-06T08:11:05;102773.0;;;20.0;54.53
34454;BME280;60061;52.080;5.312;2022-08-06T08:12:53;102773.0;;;19.95;56.05
34454;BME280;60061;52.080;5.312;2022-08-06T08:16:30;102777.0;;;20.34;57.46
34454;BME280;60061;52.080;5.312;2022-08-06T08:20:06;102783.0;;;20.39;54.85
34454;BME280;60061;52.080;5.312;2022-08-06T08:21:53;102776.0;;;20.48;55.67
34454;BME280;60061;52.080;5.312;2022-08-06T08:23:41;102775.0;;;20.54;55.11
34454;BME280;60061;52.080;5.312;2022-08-06T08:25:29;102777.0;;;20.86;54.33
34454;BME280;60061;52.080;5.312;2022-08-06T08:27:16;102783.99999999999;;;20.7;52.7
34454;BME280;60061;52.080;5.312;2022-08-06T08:29:02;102786.99999999999;;;20.59;52.37
34454;BME280;60061;52.080;5.312;2022-08-06T08:32:36;102792.0;;;20.64;51.68
34454;BME280;60061;52.080;5.312;2022-08-06T08:34:22;102783.0;;;20.63;51.19
34454;BME280;60061;52.080;5.312;2022-08-06T08:36:09;102789.00000000001;;;20.73;52.11
34454;BME280;60061;52.080;5.312;2022-08-06T08:37:56;102784.99999999999;;;20.98;51.01
34454;BME280;60061;52.080;5.312;2022-08-06T08:39:42;102783.0;;;20.92;51.79
34454;BME280;60061;52.080;5.312;2022-08-06T08:43:25;102788.00000000001;;;21.13;51.82
34454;BME280;60061;52.080;5.312;2022-08-06T08:45:23;102782.0;;;21.3;50.09
34454;BME280;60061;52.080;5.312;2022-08-06T08:47:13;102781.0;;;21.35;50.54
34454;BME280;60061;52.080;5.312;2022-08-06T08:49:02;102780.0;;;21.25;49.98
34454;BME280;60061;52.080;5.312;2022-08-06T08:50:50;102772.0;;;21.39;51.0
34454;BME280;60061;52.080;5.312;2022-08-06T08:52:39;102770.0;;;21.43;50.83
34454;BME280;60061;52.080;5.312;2022-08-06T08:54:27;102772.0;;;21.65;49.45
34454;BME280;60061;52.080;5.312;2022-08-06T08:56:16;102772.0;;;21.77;50.89
34454;BME280;60061;52.080;5.312;2022-08-06T08:59:50;102777.0;;;21.74;49.81
34454;BME280;60061;52.080;5.312;2022-08-06T09:01:39;102782.0;;;21.8;49.93
34454;BME280;60061;52.080;5.312;2022-08-06T09:03:27;102784.99999999999;;;21.5;50.78
34454;BME280;60061;52.080;5.312;2022-08-06T09:05:13;102786.99999999999;;;21.45;51.12
34454;BME280;60061;52.080;5.312;2022-08-06T09:07:02;102789.00000000001;;;21.37;50.3
34454;BME280;60061;52.080;5.312;2022-08-06T09:08:50;102789.00000000001;;;21.27;49.76
34454;BME280;60061;52.080;5.312;2022-08-06T09:12:24;102795.0;;;20.98;50.53
34454;BME280;60061;52.080;5.312;2022-08-06T09:14:11;102799.0;;;20.8;51.3
34454;BME280;60061;52.080;5.312;2022-08-06T09:15:57;102795.0;;;20.89;51.6
34454;BME280;60061;52.080;5.312;2022-08-06T09:19:32;102796.0;;;21.21;50.48
34454;BME280;60061;52.080;5.312;2022-08-06T09:21:19;102794.0;;;21.27;49.04
34454;BME280;60061;52.080;5.312;2022-08-06T09:24:51;102796.0;;;21.47;48.56
34454;BME280;60061;52.080;5.312;2022-08-06T09:27:01;102792.0;;;21.45;47.4
34454;BME280;60061;52.080;5.312;2022-08-06T09:28:49;102791.00000000001;;;21.58;48.39
34454;BME280;60061;52.080;5.312;2022-08-06T09:30:36;102792.0;;;21.94;48.63
34454;BME280;60061;52.080;5.312;2022-08-06T09:32:39;102798.0;;;22.24;47.58
34454;BME280;60061;52.080;5.312;2022-08-06T09:34:31;102793.0;;;22.16;46.02
34454;BME280;60061;52.080;5.312;2022-08-06T09:36:19;102794.0;;;22.08;45.68
34454;BME280;60061;52.080;5.312;2022-08-06T09:38:07;102799.0;;;22.25;45.64
34454;BME280;60061;52.080;5.312;2022-08-06T09:41:45;102799.0;;;22.31;45.25
34454;BME280;60061;52.080;5.312;2022-08-06T09:43:33;102801.0;;;22.35;44.58
34454;BME280;60061;52.080;5.312;2022-08-06T09:45:22;102799.0;;;22.03;44.83
34454;BME280;60061;52.080;5.312;2022-08-06T09:47:19;102792.0;;;21.75;45.79
34454;BME280;60061;52.080;5.312;2022-08-06T09:49:07;102798.0;;;22.09;44.71
34454;BME280;60061;52.080;5.312;2022-08-06T09:50:54;102792.0;;;22.17;44.5
34454;BME280;60061;52.080;5.312;2022-08-06T09:52:41;102797.0;;;22.42;43.85
34454;BME280;60061;52.080;5.312;2022-08-06T09:56:23;102788.00000000001;;;22.47;44.14
34454;BME280;60061;52.080;5.312;2022-08-06T09:58:10;102783.0;;;22.6;45.68
34454;BME280;60061;52.080;5.312;2022-08-06T09:59:56;102788.00000000001;;;22.55;45.03
34454;BME280;60061;52.080;5.312;2022-08-06T10:01:44;102783.99999999999;;;22.79;45.42
34454;BME280;60061;52.080;5.312;2022-08-06T10:05:25;102795.0;;;22.9;43.54
34454;BME280;60061;52.080;5.312;2022-08-06T10:09:08;102796.0;;;22.68;43.4
34454;BME280;60061;52.080;5.312;2022-08-06T10:11:02;102801.0;;;22.36;44.77
34454;BME280;60061;52.080;5.312;2022-08-06T10:13:10;102795.0;;;22.15;45.88
34454;BME280;60061;52.080;5.312;2022-08-06T10:14:57;102795.0;;;22.03;44.89
34454;BME280;60061;52.080;5.312;2022-08-06T10:16:44;102791.00000000001;;;22.03;45.31
34454;BME280;60061;52.080;5.312;2022-08-06T10:18:33;102790.00000000001;;;21.98;43.54
34454;BME280;60061;52.080;5.312;2022-08-06T10:20:22;102792.0;;;22.12;44.1
34454;BME280;60061;52.080;5.312;2022-08-06T10:22:09;102790.00000000001;;;22.2;43.95
34454;BME280;60061;52.080;5.312;2022-08-06T10:25:47;102786.99999999999;;;22.43;44.37
34454;BME280;60061;52.080;5.312;2022-08-06T10:27:34;102783.0;;;22.64;45.22
34454;BME280;60061;52.080;5.312;2022-08-06T10:29:21;102781.0;;;22.84;43.39
34454;BME280;60061;52.080;5.312;2022-08-06T10:31:10;102784.99999999999;;;22.98;43.23
34454;BME280;60061;52.080;5.312;2022-08-06T10:33:05;102779.0;;;23.1;42.51
34454;BME280;60061;52.080;5.312;2022-08-06T10:34:53;102775.0;;;23.37;41.34
34454;BME280;60061;52.080;5.312;2022-08-06T10:36:43;102780.0;;;23.47;41.29
34454;BME280;60061;52.080;5.312;2022-08-06T10:40:26;102782.0;;;23.25;39.85
34454;BME280;60061;52.080;5.312;2022-08-06T10:42:14;102780.0;;;23.38;38.92
34454;BME280;60061;52.080;5.312;2022-08-06T10:44:02;102781.0;;;23.44;39.92
34454;BME280;60061;52.080;5.312;2022-08-06T10:45:50;102780.0;;;23.5;38.85
34454;BME280;60061;52.080;5.312;2022-08-06T10:47:38;102778.0;;;23.49;40.65
34454;BME280;60061;52.080;5.312;2022-08-06T10:49:26;102780.0;;;23.5;41.9
34454;BME280;60061;52.080;5.312;2022-08-06T10:53:02;102775.0;;;23.5;38.92
34454;BME280;60061;52.080;5.312;2022-08-06T10:54:50;102778.0;;;23.54;39.86
34454;BME280;60061;52.080;5.312;2022-08-06T10:56:37;102779.0;;;23.43;39.74
34454;BME280;60061;52.080;5.312;2022-08-06T10:58:25;102767.0;;;23.62;39.83
34454;BME280;60061;52.080;5.312;2022-08-06T11:00:12;102771.0;;;23.66;40.9
34454;BME280;60061;52.080;5.312;2022-08-06T11:02:05;102776.0;;;23.71;41.38
34454;BME280;60061;52.080;5.312;2022-08-06T11:04:23;102780.0;;;23.65;40.58